Time;durP1;ratioP1;P1;durP2;ratioP2;P2;SDS_P1;SDS_P2;PMS_P1;PMS_P2;Temp;Humidity;BMP_temperature;BMP_pressure;BME280_temperature;BME280_humidity;BME280_pressure;Samples;Min_cycle;Max_cycle;Signal;HPM_P1;HPM_P2
2023/12/09 00:00:57;;;;;;;2.75;1.23;;;;;;;9.77;100.00;102364.13;5022262;28;20041;-70
2023/12/09 00:03:25;;;;;;;3.97;1.15;;;;;;;9.77;100.00;102364.13;5025045;28;20119;-71
2023/12/09 00:05:55;;;;;;;1.27;0.70;;;;;;;9.75;100.00;102370.91;5024812;28;20049;-71
2023/12/09 00:08:23;;;;;;;2.28;1.20;;;;;;;9.70;100.00;102374.91;5016911;28;20056;-72
2023/12/09 00:10:54;;;;;;;2.25;1.48;;;;;;;9.66;100.00;102375.53;5025392;28;20057;-73
2023/12/09 00:13:22;;;;;;;1.60;1.17;;;;;;;9.60;99.24;102372.59;5024393;28;20045;-73
2023/12/09 00:15:54;;;;;;;3.95;1.20;;;;;;;9.60;99.86;102365.72;5024217;28;20049;-74
2023/12/09 00:18:22;;;;;;;2.00;0.82;;;;;;;9.52;100.00;102358.31;5023536;28;20064;-74
2023/12/09 00:20:58;;;;;;;1.88;0.90;;;;;;;9.43;100.00;102361.25;5013552;28;20054;-73
2023/12/09 00:23:27;;;;;;;1.88;0.90;;;;;;;9.39;100.00;102360.19;5002852;28;20061;-73
2023/12/09 00:25:57;;;;;;;1.75;0.88;;;;;;;9.37;100.00;102360.91;5004293;28;20046;-71
2023/12/09 00:28:26;;;;;;;4.40;1.02;;;;;;;9.35;100.00;102357.31;5003466;28;20563;-73
2023/12/09 00:30:54;;;;;;;1.90;0.85;;;;;;;9.32;100.00;102368.38;5003550;28;20067;-72
2023/12/09 00:33:23;;;;;;;1.45;0.80;;;;;;;9.29;100.00;102375.91;5001674;28;20046;-72
2023/12/09 00:35:53;;;;;;;2.05;0.95;;;;;;;9.22;100.00;102377.22;4997563;28;20057;-72
2023/12/09 00:38:21;;;;;;;4.10;1.17;;;;;;;9.19;100.00;102366.72;5003545;28;20057;-73
2023/12/09 00:40:50;;;;;;;6.13;1.42;;;;;;;9.16;100.00;102365.63;5001849;28;20726;-73
2023/12/09 00:43:20;;;;;;;2.28;1.02;;;;;;;9.06;100.00;102360.72;5003584;28;20492;-73
2023/12/09 00:45:49;;;;;;;1.42;0.88;;;;;;;9.02;100.00;102368.28;5005535;28;20045;-74
2023/12/09 00:48:18;;;;;;;3.92;1.25;;;;;;;8.90;100.00;102352.00;5003410;28;20141;-73
2023/12/09 00:50:48;;;;;;;3.13;1.42;;;;;;;8.85;100.00;102362.88;5005671;28;20527;-72
2023/12/09 00:53:16;;;;;;;2.25;1.05;;;;;;;8.75;100.00;102361.38;5005790;28;20558;-74
2023/12/09 00:55:45;;;;;;;1.38;0.85;;;;;;;8.71;100.00;102362.00;5004379;28;20050;-73
2023/12/09 00:58:13;;;;;;;2.05;1.05;;;;;;;8.62;100.00;102358.84;5002552;28;20049;-74
2023/12/09 01:00:44;;;;;;;1.85;0.98;;;;;;;8.60;100.00;102362.22;5003185;28;20060;-73
2023/12/09 01:03:12;;;;;;;2.45;1.33;;;;;;;8.59;100.00;102368.19;4998358;28;20053;-72
2023/12/09 01:05:41;;;;;;;2.78;1.40;;;;;;;8.53;100.00;102372.94;5000286;28;20635;-73
2023/12/09 01:08:10;;;;;;;2.95;1.77;;;;;;;8.51;100.00;102382.25;5003799;28;20061;-73
2023/12/09 01:10:41;;;;;;;5.90;1.90;;;;;;;8.49;100.00;102383.84;5002641;28;20516;-73
2023/12/09 01:13:10;;;;;;;4.20;1.73;;;;;;;8.38;100.00;102379.66;5002370;28;20227;-72
2023/12/09 01:15:39;;;;;;;3.00;1.65;;;;;;;8.31;100.00;102377.47;5005900;28;20045;-72
2023/12/09 01:18:12;;;;;;;4.70;1.98;;;;;;;8.26;100.00;102384.03;5007018;28;20531;-71
2023/12/09 01:20:44;;;;;;;4.80;1.65;;;;;;;8.18;100.00;102381.84;5018236;28;20503;-71
2023/12/09 01:23:13;;;;;;;4.03;2.00;;;;;;;8.14;100.00;102377.28;5027918;28;20045;-73
2023/12/09 01:25:41;;;;;;;3.08;1.50;;;;;;;8.15;100.00;102386.81;5030256;28;20045;-73
2023/12/09 01:28:10;;;;;;;3.00;1.67;;;;;;;8.05;100.00;102380.94;5028406;28;20064;-73
2023/12/09 01:30:38;;;;;;;5.82;2.17;;;;;;;8.01;100.00;102387.56;5025637;28;20049;-71
2023/12/09 01:33:09;;;;;;;4.10;1.77;;;;;;;7.99;100.00;102394.31;5026815;28;20046;-72
2023/12/09 01:35:37;;;;;;;3.60;1.92;;;;;;;7.96;100.00;102394.13;5021968;28;20481;-73
2023/12/09 01:38:06;;;;;;;5.10;1.92;;;;;;;7.96;100.00;102388.97;5025542;28;20077;-74
2023/12/09 01:40:35;;;;;;;5.40;2.28;;;;;;;7.94;100.00;102390.53;5027267;28;20076;-72
2023/12/09 01:43:11;;;;;;;4.93;2.03;;;;;;;7.91;100.00;102395.50;5028242;28;20741;-73
2023/12/09 01:45:40;;;;;;;5.53;2.45;;;;;;;7.86;100.00;102389.16;5028857;28;20051;-73
2023/12/09 01:48:11;;;;;;;7.95;3.08;;;;;;;7.78;100.00;102383.47;5027081;28;20536;-72
2023/12/09 01:50:40;;;;;;;5.97;2.70;;;;;;;7.69;100.00;102394.03;5028137;28;20053;-72
2023/12/09 01:53:16;;;;;;;5.30;2.60;;;;;;;7.66;100.00;102393.84;5025193;28;20137;-71
2023/12/09 01:55:44;;;;;;;6.57;2.00;;;;;;;7.63;100.00;102392.72;5025619;28;20041;-72
2023/12/09 01:58:13;;;;;;;7.50;3.13;;;;;;;7.58;100.00;102395.00;5023477;28;20049;-72
2023/12/09 02:00:45;;;;;;;8.13;2.70;;;;;;;7.55;100.00;102405.09;5023270;28;20052;-72
2023/12/09 02:03:16;;;;;;;11.15;3.28;;;;;;;7.51;100.00;102408.25;5026401;28;20053;-71
2023/12/09 02:05:44;;;;;;;7.40;3.00;;;;;;;7.47;100.00;102411.44;5025218;28;20569;-71
2023/12/09 02:08:13;;;;;;;5.07;2.83;;;;;;;7.44;100.00;102406.94;5026130;28;20061;-70
2023/12/09 02:10:42;;;;;;;6.53;2.47;;;;;;;7.39;100.00;102408.31;5026263;28;20049;-72
2023/12/09 02:13:19;;;;;;;5.25;2.13;;;;;;;7.38;100.00;102409.13;5026129;28;20511;-72
2023/12/09 02:15:54;;;;;;;6.65;2.38;;;;;;;7.28;100.00;102417.91;5027813;28;20512;-73
2023/12/09 02:18:26;;;;;;;6.43;2.40;;;;;;;7.18;100.00;102409.41;5026669;28;20064;-71
2023/12/09 02:20:58;;;;;;;6.70;2.60;;;;;;;7.13;100.00;102401.38;5025452;28;20061;-72
2023/12/09 02:23:28;;;;;;;7.95;3.00;;;;;;;7.08;100.00;102405.31;5028172;28;20060;-71
2023/12/09 02:26:05;;;;;;;6.05;3.17;;;;;;;7.05;100.00;102405.97;5025675;28;20056;-72
2023/12/09 02:28:40;;;;;;;5.72;2.65;;;;;;;7.04;100.00;102414.50;5024318;28;20058;-72
2023/12/09 02:31:15;;;;;;;6.93;2.55;;;;;;;7.01;100.00;102410.78;5026548;28;20064;-72
2023/12/09 02:33:44;;;;;;;5.55;2.47;;;;;;;7.02;100.00;102421.19;5024794;28;20085;-73
2023/12/09 02:36:18;;;;;;;6.25;2.45;;;;;;;6.99;100.00;102409.81;5026000;28;20064;-72
2023/12/09 02:38:51;;;;;;;9.02;2.95;;;;;;;6.99;100.00;102420.13;5024256;28;20123;-73
2023/12/09 02:41:20;;;;;;;4.43;1.90;;;;;;;6.97;100.00;102411.38;5025694;28;20053;-73
2023/12/09 02:43:49;;;;;;;5.10;1.92;;;;;;;6.95;100.00;102410.38;5024429;28;20049;-73
2023/12/09 02:46:18;;;;;;;1.83;1.13;;;;;;;6.91;100.00;102405.00;5026513;28;20045;-73
2023/12/09 02:48:51;;;;;;;2.08;1.48;;;;;;;6.82;100.00;102401.78;5025175;28;20176;-72
2023/12/09 02:51:20;;;;;;;4.05;1.70;;;;;;;6.83;100.00;102406.16;5025148;28;20045;-71
2023/12/09 02:53:50;;;;;;;3.70;1.63;;;;;;;6.80;100.00;102398.19;5023867;28;20065;-71
2023/12/09 02:56:22;;;;;;;6.28;1.85;;;;;;;6.76;100.00;102403.00;5025630;28;20046;-72
2023/12/09 02:58:51;;;;;;;7.00;1.70;;;;;;;6.70;100.00;102406.94;5023593;28;20042;-72
2023/12/09 03:01:19;;;;;;;4.32;2.13;;;;;;;6.67;100.00;102404.16;5023545;28;20042;-73
2023/12/09 03:03:48;;;;;;;7.80;1.90;;;;;;;6.66;100.00;102415.22;5025673;28;20052;-73
2023/12/09 03:06:17;;;;;;;3.10;2.03;;;;;;;6.66;100.00;102415.22;5009586;28;20049;-73
2023/12/09 03:08:46;;;;;;;5.22;1.70;;;;;;;6.63;100.00;102415.00;5025659;28;20049;-74
2023/12/09 03:11:16;;;;;;;7.80;2.78;;;;;;;6.64;100.00;102416.81;5025656;28;20046;-72
2023/12/09 03:13:45;;;;;;;5.70;2.50;;;;;;;6.62;100.00;102417.47;5026935;28;20053;-73
2023/12/09 03:16:13;;;;;;;3.20;2.20;;;;;;;6.65;100.00;102428.00;5028557;28;20041;-72
2023/12/09 03:18:42;;;;;;;5.07;2.28;;;;;;;6.68;100.00;102420.47;5023973;28;20045;-72
2023/12/09 03:21:16;;;;;;;6.13;3.03;;;;;;;6.71;100.00;102413.91;5026452;28;20061;-71
2023/12/09 03:23:45;;;;;;;5.13;2.65;;;;;;;6.71;100.00;102413.91;5026633;28;20049;-71
2023/12/09 03:26:19;;;;;;;6.22;2.72;;;;;;;6.71;100.00;102412.97;5025280;28;20056;-71
2023/12/09 03:28:48;;;;;;;4.80;2.78;;;;;;;6.74;100.00;102412.31;5025274;28;20226;-71
2023/12/09 03:31:19;;;;;;;5.47;2.88;;;;;;;6.74;100.00;102410.66;5025338;28;20049;-69
2023/12/09 03:33:48;;;;;;;5.93;3.17;;;;;;;6.75;100.00;102415.00;5025212;28;20045;-69
2023/12/09 03:36:17;;;;;;;4.05;2.42;;;;;;;6.73;100.00;102411.41;5025694;28;20042;-70
2023/12/09 03:38:46;;;;;;;4.80;2.95;;;;;;;6.72;100.00;102414.78;5023072;28;20053;-70
2023/12/09 03:41:14;;;;;;;3.00;1.80;;;;;;;6.68;100.00;102407.63;5025499;28;20049;-72
2023/12/09 03:43:45;;;;;;;3.17;2.38;;;;;;;6.69;100.00;102410.31;5026645;28;20075;-70
2023/12/09 03:46:15;;;;;;;4.63;3.17;;;;;;;6.66;100.00;102414.31;5024053;28;20260;-69
2023/12/09 03:48:44;;;;;;;6.20;3.15;;;;;;;6.58;100.00;102410.34;5025940;28;20064;-70
2023/12/09 03:51:17;;;;;;;7.20;2.97;;;;;;;6.44;100.00;102405.06;5025446;28;20049;-70
2023/12/09 03:53:46;;;;;;;6.57;2.83;;;;;;;6.41;100.00;102403.94;5028879;28;20072;-70
2023/12/09 03:56:20;;;;;;;9.82;3.03;;;;;;;6.36;100.00;102398.47;5025962;28;20443;-70
2023/12/09 03:58:51;;;;;;;4.50;2.35;;;;;;;6.35;100.00;102406.09;5022924;28;20041;-70
2023/12/09 04:01:24;;;;;;;5.95;3.08;;;;;;;6.32;100.00;102396.44;5026130;28;20140;-70
2023/12/09 04:03:53;;;;;;;9.23;2.20;;;;;;;6.31;100.00;102410.09;5025887;28;20423;-69
2023/12/09 04:06:22;;;;;;;10.13;2.88;;;;;;;6.28;100.00;102391.91;5027491;28;20088;-69
2023/12/09 04:08:51;;;;;;;9.05;2.70;;;;;;;6.26;100.00;102403.75;5021792;28;20784;-70
2023/12/09 04:11:20;;;;;;;8.60;2.47;;;;;;;6.21;100.00;102395.69;5026588;28;20139;-68
2023/12/09 04:13:51;;;;;;;5.05;2.20;;;;;;;6.13;100.00;102401.03;5027600;28;20042;-68
2023/12/09 04:16:19;;;;;;;5.38;2.55;;;;;;;6.01;100.00;102395.91;5027333;28;20051;-69
2023/12/09 04:18:47;;;;;;;4.43;2.53;;;;;;;5.93;100.00;102399.53;5025915;28;20087;-69
2023/12/09 04:21:16;;;;;;;8.35;2.17;;;;;;;5.87;100.00;102394.84;5029965;28;20054;-68
2023/12/09 04:23:45;;;;;;;7.03;2.90;;;;;;;5.79;100.00;102383.97;5028536;28;20551;-70
2023/12/09 04:26:14;;;;;;;5.80;2.75;;;;;;;5.75;100.00;102388.75;5028296;28;20115;-68
2023/12/09 04:28:43;;;;;;;5.85;2.35;;;;;;;5.71;100.00;102382.50;5023623;28;20084;-69
2023/12/09 04:31:13;;;;;;;4.88;2.15;;;;;;;5.70;100.00;102385.84;5024974;28;20056;-69
2023/12/09 04:33:44;;;;;;;8.05;2.88;;;;;;;5.70;100.00;102384.97;5025587;28;20045;-69
2023/12/09 04:36:13;;;;;;;7.43;2.97;;;;;;;5.71;100.00;102381.63;5028014;28;20051;-69
2023/12/09 04:38:43;;;;;;;6.20;3.03;;;;;;;5.67;100.00;102389.06;5026494;28;20116;-69
2023/12/09 04:41:11;;;;;;;10.32;3.65;;;;;;;5.67;100.00;102386.50;5026862;28;20088;-69
2023/12/09 04:43:40;;;;;;;8.27;3.70;;;;;;;5.68;100.00;102387.44;5025787;28;20136;-68
2023/12/09 04:46:09;;;;;;;6.70;3.88;;;;;;;5.72;100.00;102388.53;5026911;28;20080;-69
2023/12/09 04:48:39;;;;;;;7.60;3.85;;;;;;;5.73;100.00;102391.22;5029014;28;20060;-69
2023/12/09 04:51:08;;;;;;;7.70;4.00;;;;;;;5.74;100.00;102394.69;5031824;28;20507;-70
2023/12/09 04:53:37;;;;;;;11.20;4.78;;;;;;;5.76;100.00;102388.00;5029801;28;20041;-69
2023/12/09 04:56:06;;;;;;;10.70;3.97;;;;;;;5.71;100.00;102387.66;5026065;28;20403;-70
2023/12/09 04:58:35;;;;;;;8.50;3.83;;;;;;;5.74;100.00;102386.97;5028659;28;20538;-69
2023/12/09 05:01:04;;;;;;;9.48;4.07;;;;;;;5.76;100.00;102390.56;5030123;28;20508;-68
2023/12/09 05:03:36;;;;;;;8.05;3.85;;;;;;;5.72;100.00;102380.84;5032070;28;20224;-70
2023/12/09 05:06:06;;;;;;;9.30;4.23;;;;;;;5.65;100.00;102385.50;5031315;28;20471;-70
2023/12/09 05:08:35;;;;;;;9.90;4.40;;;;;;;5.54;100.00;102383.78;5032059;28;20057;-70
2023/12/09 05:11:04;;;;;;;12.35;5.00;;;;;;;5.45;100.00;102384.00;5029752;28;20057;-72
2023/12/09 05:13:36;;;;;;;17.83;4.90;;;;;;;5.36;100.00;102382.38;5030262;28;20049;-73
2023/12/09 05:16:06;;;;;;;9.70;4.05;;;;;;;5.24;100.00;102383.28;5030776;28;20056;-73
2023/12/09 05:18:35;;;;;;;5.38;2.88;;;;;;;5.15;100.00;102374.81;5030014;28;20099;-70
2023/12/09 05:21:06;;;;;;;8.90;4.72;;;;;;;5.09;100.00;102386.31;5031067;28;20076;-70
2023/12/09 05:23:35;;;;;;;11.45;6.32;;;;;;;5.03;100.00;102392.72;5035125;28;20041;-70
2023/12/09 05:26:04;;;;;;;9.48;3.65;;;;;;;5.03;100.00;102386.72;5034088;28;20047;-69
2023/12/09 05:28:33;;;;;;;8.07;3.90;;;;;;;5.04;100.00;102389.41;5036207;28;20071;-73
2023/12/09 05:31:02;;;;;;;7.47;4.10;;;;;;;5.07;100.00;102387.88;5036284;28;20518;-74
2023/12/09 05:33:34;;;;;;;7.95;4.32;;;;;;;5.04;100.00;102385.97;5034146;28;20045;-73
2023/12/09 05:36:05;;;;;;;15.68;4.80;;;;;;;5.05;100.00;102387.72;5032892;28;20844;-73
2023/12/09 05:38:37;;;;;;;11.05;4.80;;;;;;;5.08;100.00;102384.50;5025188;28;20057;-72
2023/12/09 05:41:06;;;;;;;9.05;5.50;;;;;;;5.06;100.00;102386.94;5032477;28;20089;-72
2023/12/09 05:43:37;;;;;;;8.90;4.47;;;;;;;5.05;100.00;102390.31;5032802;28;20079;-74
2023/12/09 05:46:06;;;;;;;12.63;4.55;;;;;;;5.06;100.00;102396.31;5029271;28;20060;-71
2023/12/09 05:48:35;;;;;;;14.05;5.15;;;;;;;5.01;100.00;102394.28;5028499;28;20057;-71
2023/12/09 05:51:06;;;;;;;15.40;4.68;;;;;;;5.02;100.00;102395.19;5031724;28;20057;-71
2023/12/09 05:53:37;;;;;;;9.25;4.20;;;;;;;4.98;100.00;102395.72;5030103;28;20045;-72
2023/12/09 05:56:09;;;;;;;8.02;3.88;;;;;;;4.96;100.00;102390.47;5028830;28;20052;-71
2023/12/09 05:58:38;;;;;;;7.18;3.88;;;;;;;4.87;100.00;102394.00;5024697;28;20073;-70
2023/12/09 06:01:13;;;;;;;12.95;4.10;;;;;;;4.81;100.00;102391.81;5025678;28;20160;-71
2023/12/09 06:03:42;;;;;;;8.82;4.30;;;;;;;4.74;100.00;102403.28;5027968;28;20499;-71
2023/12/09 06:06:12;;;;;;;8.35;3.40;;;;;;;4.70;100.00;102403.81;5029463;28;20088;-71
2023/12/09 06:08:41;;;;;;;5.88;3.15;;;;;;;4.66;100.00;102401.78;5028032;28;20041;-72
2023/12/09 06:11:09;;;;;;;7.32;3.60;;;;;;;4.55;100.00;102390.66;5026926;28;20080;-72
2023/12/09 06:13:39;;;;;;;5.70;3.30;;;;;;;4.53;100.00;102391.31;5024972;28;20464;-74
2023/12/09 06:16:08;;;;;;;7.53;3.83;;;;;;;4.49;100.00;102404.66;5028273;28;20142;-73
2023/12/09 06:18:37;;;;;;;7.00;4.00;;;;;;;4.47;100.00;102401.09;5028500;28;20045;-72
2023/12/09 06:21:06;;;;;;;7.45;3.10;;;;;;;4.53;100.00;102396.44;5021710;28;20069;-73
2023/12/09 06:23:38;;;;;;;7.13;2.40;;;;;;;4.55;100.00;102394.91;5009390;28;20064;-72
2023/12/09 06:26:07;;;;;;;5.20;2.75;;;;;;;4.52;100.00;102394.66;5009083;28;20066;-71
2023/12/09 06:28:38;;;;;;;9.52;3.15;;;;;;;4.55;100.00;102397.47;5006184;28;20045;-71
2023/12/09 06:31:07;;;;;;;7.10;3.05;;;;;;;4.56;100.00;102396.69;5006063;28;20061;-73
2023/12/09 06:33:36;;;;;;;6.55;2.95;;;;;;;4.55;100.00;102392.31;5003549;28;20052;-72
2023/12/09 06:36:05;;;;;;;4.30;2.15;;;;;;;4.57;100.00;102401.03;5008901;28;20053;-72
2023/12/09 06:38:39;;;;;;;2.92;2.08;;;;;;;4.57;100.00;102398.47;5007180;28;20042;-72
2023/12/09 06:41:08;;;;;;;5.13;2.30;;;;;;;4.53;100.00;102389.63;5005279;28;20065;-72
2023/12/09 06:43:37;;;;;;;4.97;2.63;;;;;;;4.47;100.00;102390.84;5008580;28;20046;-74
2023/12/09 06:46:06;;;;;;;4.57;2.78;;;;;;;4.44;100.00;102391.47;4999178;28;20132;-72
2023/12/09 06:48:37;;;;;;;6.18;2.83;;;;;;;4.44;100.00;102386.34;5008117;28;20049;-72
2023/12/09 06:51:08;;;;;;;11.52;3.75;;;;;;;4.43;100.00;102382.00;5008622;28;20175;-73
2023/12/09 06:53:42;;;;;;;10.18;3.83;;;;;;;4.38;100.00;102379.06;5003675;28;20050;-73
2023/12/09 06:56:23;;;;;;;9.52;3.97;;;;;;;4.40;100.00;102382.66;5005991;28;20053;-73
2023/12/09 06:58:52;;;;;;;13.73;3.97;;;;;;;4.44;100.00;102375.19;4999968;28;20124;-72
2023/12/09 07:01:22;;;;;;;9.07;4.38;;;;;;;4.47;100.00;102372.91;5005565;28;20045;-73
2023/12/09 07:03:53;;;;;;;6.85;3.25;;;;;;;4.48;100.00;102373.00;5006446;28;20061;-72
2023/12/09 07:06:24;;;;;;;9.23;4.03;;;;;;;4.46;100.00;102374.53;5006406;28;20484;-72
2023/12/09 07:08:55;;;;;;;8.05;4.43;;;;;;;4.41;100.00;102371.59;5007287;28;20536;-72
2023/12/09 07:11:24;;;;;;;9.77;5.40;;;;;;;4.35;100.00;102366.00;5005625;28;20571;-73
2023/12/09 07:13:53;;;;;;;6.15;3.63;;;;;;;4.36;100.00;102357.53;5003239;28;20381;-72
2023/12/09 07:16:22;;;;;;;6.20;4.18;;;;;;;4.35;100.00;102354.84;5007748;28;20077;-73
2023/12/09 07:18:58;;;;;;;9.27;3.42;;;;;;;4.33;100.00;102357.31;5002749;28;20420;-72
2023/12/09 07:21:27;;;;;;;7.60;2.95;;;;;;;4.32;100.00;102347.81;5019218;28;20053;-73
2023/12/09 07:23:57;;;;;;;7.20;3.10;;;;;;;4.28;100.00;102340.63;5029706;28;20156;-72
2023/12/09 07:26:27;;;;;;;3.60;2.40;;;;;;;4.29;100.00;102344.13;5011438;28;20062;-72
2023/12/09 07:28:56;;;;;;;4.95;2.70;;;;;;;4.28;100.00;102338.06;5027036;28;20505;-73
2023/12/09 07:31:25;;;;;;;3.67;2.50;;;;;;;4.29;100.00;102332.19;5025790;28;20053;-73
2023/12/09 07:33:53;;;;;;;5.07;2.60;;;;;;;4.30;100.00;102331.41;5026596;28;20045;-73
2023/12/09 07:36:22;;;;;;;14.15;3.60;;;;;;;4.32;100.00;102327.31;5026254;28;20661;-73
2023/12/09 07:38:51;;;;;;;6.25;2.90;;;;;;;4.34;100.00;102317.19;5023748;28;20103;-73
2023/12/09 07:41:22;;;;;;;5.20;3.17;;;;;;;4.36;100.00;102311.41;5027293;28;20046;-73
2023/12/09 07:43:51;;;;;;;5.57;2.85;;;;;;;4.35;100.00;102311.28;5026925;28;20049;-73
2023/12/09 07:46:22;;;;;;;5.30;3.05;;;;;;;4.35;100.00;102308.72;5027661;28;20052;-73
2023/12/09 07:48:50;;;;;;;8.00;3.08;;;;;;;4.35;100.00;102307.06;5026949;28;20045;-74
2023/12/09 07:51:19;;;;;;;4.88;2.85;;;;;;;4.30;100.00;102299.78;5028814;28;20069;-73
2023/12/09 07:53:48;;;;;;;9.30;3.28;;;;;;;4.16;100.00;102298.69;5029856;28;20046;-76
2023/12/09 07:56:16;;;;;;;6.07;3.25;;;;;;;4.17;100.00;102310.72;5032304;28;20064;-73
2023/12/09 07:58:49;;;;;;;6.28;3.05;;;;;;;4.12;100.00;102310.38;5029584;28;20515;-73
2023/12/09 08:01:18;;;;;;;7.35;4.25;;;;;;;4.10;100.00;102304.22;5027429;28;20053;-73
2023/12/09 08:03:47;;;;;;;5.53;3.40;;;;;;;4.09;100.00;102307.53;5026490;28;20131;-73
2023/12/09 08:06:16;;;;;;;10.43;4.15;;;;;;;4.08;100.00;102298.06;5023468;28;20053;-73
2023/12/09 08:08:45;;;;;;;6.55;3.78;;;;;;;4.07;100.00;102292.81;5022685;28;20119;-73
2023/12/09 08:11:13;;;;;;;10.00;3.78;;;;;;;3.98;100.00;102288.72;5026301;28;20053;-73
2023/12/09 08:13:46;;;;;;;4.22;3.00;;;;;;;3.98;100.00;102281.03;5024644;28;20046;-72
2023/12/09 08:16:14;;;;;;;;;;;;;;;3.99;100.00;102277.72;5026063;28;20038;-73
2023/12/09 08:18:43;;;;;;;4.80;3.00;;;;;;;3.99;100.00;102269.16;5025231;28;19932;-73
2023/12/09 08:21:12;;;;;;;5.95;3.20;;;;;;;3.94;100.00;102268.78;5023260;28;20092;-73
2023/12/09 08:23:40;;;;;;;4.43;2.40;;;;;;;3.86;100.00;102254.47;5010017;28;20046;-72
2023/12/09 08:26:10;;;;;;;4.97;2.63;;;;;;;3.81;100.00;102255.75;5008475;28;20625;-73
2023/12/09 08:28:38;;;;;;;6.60;3.30;;;;;;;3.76;100.00;102251.94;5007133;28;21335;-72
2023/12/09 08:31:09;;;;;;;5.25;2.72;;;;;;;3.72;100.00;102247.34;5008458;28;20495;-72
2023/12/09 08:33:37;;;;;;;6.38;2.72;;;;;;;3.70;100.00;102246.31;5006270;28;20159;-73
2023/12/09 08:36:07;;;;;;;5.88;3.08;;;;;;;3.68;100.00;102245.28;5006104;28;20062;-73
2023/12/09 08:38:35;;;;;;;4.50;2.35;;;;;;;3.65;100.00;102238.28;5001349;28;20049;-73
2023/12/09 08:41:04;;;;;;;5.18;2.55;;;;;;;3.64;100.00;102241.63;5005872;28;20412;-73
2023/12/09 08:43:37;;;;;;;4.22;2.80;;;;;;;3.61;100.00;102246.47;5007055;28;20053;-74
2023/12/09 08:46:06;;;;;;;5.45;2.75;;;;;;;3.55;100.00;102244.31;5006942;28;20061;-73
2023/12/09 08:48:36;;;;;;;4.63;3.03;;;;;;;3.58;100.00;102245.34;5001773;28;20065;-73
2023/12/09 08:51:05;;;;;;;4.00;2.67;;;;;;;3.62;100.00;102247.34;5009133;28;20277;-73
2023/12/09 08:53:37;;;;;;;4.38;2.70;;;;;;;3.63;100.00;102246.59;5006356;28;20056;-72
2023/12/09 08:56:06;;;;;;;6.63;2.80;;;;;;;3.59;100.00;102242.88;5006311;28;20042;-73
2023/12/09 08:58:35;;;;;;;4.72;1.95;;;;;;;3.58;100.00;102236.00;5001737;28;20468;-72
2023/12/09 09:01:03;;;;;;;5.43;2.95;;;;;;;3.59;100.00;102231.75;5005594;28;20034;-72
2023/12/09 09:03:37;;;;;;;4.55;2.90;;;;;;;3.60;100.00;102219.09;5006699;28;20054;-73
2023/12/09 09:06:07;;;;;;;6.40;2.65;;;;;;;3.62;100.00;102219.19;5006469;28;20054;-73
2023/12/09 09:08:35;;;;;;;5.13;2.50;;;;;;;3.63;100.00;102221.00;5005614;28;20459;-73
2023/12/09 09:11:04;;;;;;;5.18;2.40;;;;;;;3.51;100.00;102209.00;5003962;28;20061;-73
2023/12/09 09:13:36;;;;;;;7.78;3.03;;;;;;;3.45;100.00;102213.59;5005212;28;20042;-72
2023/12/09 09:16:08;;;;;;;4.55;2.50;;;;;;;3.47;100.00;102231.66;5006854;28;20068;-73
2023/12/09 09:18:38;;;;;;;3.85;2.00;;;;;;;3.44;100.00;102239.97;5005516;28;20048;-72
2023/12/09 09:21:07;;;;;;;8.13;2.60;;;;;;;3.40;100.00;102231.94;5009419;28;20571;-72
2023/12/09 09:23:40;;;;;;;4.75;2.47;;;;;;;3.39;100.00;102223.38;5005725;28;20528;-73
2023/12/09 09:26:10;;;;;;;5.95;3.03;;;;;;;3.41;100.00;102224.34;5009685;28;20140;-73
2023/12/09 09:28:39;;;;;;;4.85;2.33;;;;;;;3.40;100.00;102237.03;5007679;28;20054;-73
2023/12/09 09:31:08;;;;;;;3.75;2.35;;;;;;;3.38;100.00;102226.69;5003725;28;20062;-72
2023/12/09 09:33:38;;;;;;;2.58;2.08;;;;;;;3.38;100.00;102221.56;5005846;28;20050;-72
2023/12/09 09:36:07;;;;;;;4.93;2.20;;;;;;;3.40;100.00;102220.03;5007393;28;20099;-72
2023/12/09 09:38:38;;;;;;;3.95;2.47;;;;;;;3.45;100.00;102213.59;5010326;28;20050;-73
2023/12/09 09:41:12;;;;;;;3.53;1.90;;;;;;;3.43;100.00;102194.66;5005949;28;20045;-73
2023/12/09 09:43:47;;;;;;;5.65;2.10;;;;;;;3.56;100.00;102215.38;5006990;28;20212;-73
2023/12/09 09:46:20;;;;;;;10.77;2.13;;;;;;;3.55;100.00;102211.03;5009863;28;20129;-72
2023/12/09 09:48:54;;;;;;;5.35;2.40;;;;;;;3.57;100.00;102216.25;5009617;28;20050;-73
2023/12/09 09:51:28;;;;;;;5.70;2.25;;;;;;;3.59;100.00;102206.16;5008429;28;20056;-73
2023/12/09 09:54:07;;;;;;;5.20;2.33;;;;;;;3.65;100.00;102206.66;5009064;28;20061;-73
2023/12/09 09:56:36;;;;;;;9.88;2.65;;;;;;;3.65;100.00;102206.66;5011862;28;20514;-73
2023/12/09 09:59:06;;;;;;;7.88;2.05;;;;;;;3.61;100.00;102212.31;5009326;28;20487;-73
2023/12/09 10:01:37;;;;;;;3.50;1.85;;;;;;;3.60;100.00;102218.16;5013685;28;20053;-73
2023/12/09 10:04:07;;;;;;;5.90;1.98;;;;;;;3.59;100.00;102213.84;5010530;28;20125;-73
2023/12/09 10:06:37;;;;;;;3.75;2.30;;;;;;;3.59;100.00;102213.84;5012027;28;20137;-72
2023/12/09 10:09:06;;;;;;;6.47;2.75;;;;;;;3.63;100.00;102208.19;5010340;28;20507;-73
2023/12/09 10:11:34;;;;;;;7.05;2.85;;;;;;;3.71;100.00;102204.56;5014521;28;20061;-72
2023/12/09 10:14:03;;;;;;;13.77;3.08;;;;;;;3.75;100.00;102209.19;5011387;28;20049;-73
2023/12/09 10:16:35;;;;;;;5.28;2.67;;;;;;;3.79;100.00;102211.22;5012750;28;20045;-72
2023/12/09 10:19:04;;;;;;;7.57;3.13;;;;;;;3.82;100.00;102220.81;5009179;28;20049;-72
2023/12/09 10:21:38;;;;;;;8.32;2.67;;;;;;;3.84;100.00;102222.72;5012571;28;20843;-72
2023/12/09 10:24:07;;;;;;;11.05;2.95;;;;;;;3.87;100.00;102230.66;5009736;28;20046;-73
2023/12/09 10:26:36;;;;;;;5.72;2.92;;;;;;;3.81;100.00;102213.91;5010142;28;20142;-73
2023/12/09 10:29:06;;;;;;;5.28;2.90;;;;;;;3.91;100.00;102230.09;5010067;28;20072;-73
2023/12/09 10:31:36;;;;;;;10.88;3.13;;;;;;;3.90;100.00;102233.47;5008886;28;20069;-72
2023/12/09 10:34:05;;;;;;;5.15;2.55;;;;;;;3.90;100.00;102225.78;5007918;28;20049;-72
2023/12/09 10:36:34;;;;;;;6.75;2.63;;;;;;;3.89;100.00;102223.97;5009335;28;20041;-72
2023/12/09 10:39:08;;;;;;;8.73;2.33;;;;;;;3.79;100.00;102211.22;5007271;28;20523;-72
2023/12/09 10:41:37;;;;;;;4.25;2.65;;;;;;;3.73;100.00;102195.34;5008546;28;20129;-73
2023/12/09 10:44:06;;;;;;;11.30;2.60;;;;;;;3.69;100.00;102193.34;5006625;28;20042;-73
2023/12/09 10:46:35;;;;;;;7.40;3.15;;;;;;;3.61;100.00;102186.72;5003637;28;20511;-73
2023/12/09 10:49:03;;;;;;;5.15;2.45;;;;;;;3.56;100.00;102183.78;5005610;28;20056;-73
2023/12/09 10:51:36;;;;;;;11.85;3.20;;;;;;;3.51;100.00;102177.41;5007977;28;20088;-73
2023/12/09 10:54:06;;;;;;;10.15;2.92;;;;;;;3.48;100.00;102175.50;5006697;28;20172;-72
2023/12/09 10:56:35;;;;;;;5.30;3.13;;;;;;;3.49;100.00;102158.47;5012412;28;20057;-72
2023/12/09 10:59:05;;;;;;;9.70;2.78;;;;;;;3.59;100.00;102160.97;5007781;28;20075;-75
2023/12/09 11:01:34;;;;;;;7.45;3.17;;;;;;;3.64;100.00;102159.72;5006965;28;20049;-72
2023/12/09 11:04:04;;;;;;;5.55;2.75;;;;;;;3.71;100.00;102155.94;5006547;28;20153;-72
2023/12/09 11:06:38;;;;;;;8.15;3.42;;;;;;;3.74;100.00;102151.09;5008523;28;20053;-72
2023/12/09 11:09:10;;;;;;;6.75;3.03;;;;;;;3.82;100.00;102154.25;5009866;28;20077;-73
2023/12/09 11:11:39;;;;;;;7.47;2.90;;;;;;;3.86;100.00;102154.59;5009502;28;20053;-73
2023/12/09 11:14:09;;;;;;;4.95;1.83;;;;;;;3.89;100.00;102154.84;5006514;28;20046;-74
2023/12/09 11:16:43;;;;;;;7.65;2.30;;;;;;;3.94;100.00;102161.22;5008889;28;20135;-72
2023/12/09 11:19:16;;;;;;;6.03;2.10;;;;;;;3.93;100.00;102149.19;5008170;28;20049;-73
2023/12/09 11:21:46;;;;;;;3.50;1.52;;;;;;;3.96;100.00;102144.31;5017380;28;20495;-72
2023/12/09 11:24:20;;;;;;;3.83;1.60;;;;;;;3.96;100.00;102134.09;5025856;28;20080;-73
2023/12/09 11:26:49;;;;;;;3.15;1.55;;;;;;;3.94;100.00;102130.50;5028678;28;20045;-73
2023/12/09 11:29:18;;;;;;;7.70;1.67;;;;;;;3.94;100.00;102135.63;5028969;28;20053;-72
2023/12/09 11:31:49;;;;;;;3.22;1.60;;;;;;;3.93;100.00;102130.38;5026775;28;20045;-72
2023/12/09 11:34:19;;;;;;;3.53;1.45;;;;;;;3.90;100.00;102123.34;5027159;28;20046;-73
2023/12/09 11:36:49;;;;;;;2.88;1.40;;;;;;;3.90;100.00;102131.03;5028458;28;20525;-73